sensor_id;sensor_type;location;lat;lon;timestamp;pressure;altitude;pressure_sealevel;temperature;humidity
77027;BME280;65956;52.986;17.490;2023-09-19T00:02:21;99448.60;;;19.99;75.53
77027;BME280;65956;52.986;17.490;2023-09-19T00:04:48;99449.59;;;19.94;75.81
77027;BME280;65956;52.986;17.490;2023-09-19T00:07:15;99446.94;;;19.89;76.29
77027;BME280;65956;52.986;17.490;2023-09-19T00:09:42;99453.27;;;19.82;76.93
77027;BME280;65956;52.986;17.490;2023-09-19T00:12:10;99457.09;;;19.75;77.06
77027;BME280;65956;52.986;17.490;2023-09-19T00:14:39;99453.90;;;19.69;77.14
77027;BME280;65956;52.986;17.490;2023-09-19T00:17:06;99451.58;;;19.64;77.54
77027;BME280;65956;52.986;17.490;2023-09-19T00:19:35;99452.04;;;19.60;77.53
77027;BME280;65956;52.986;17.490;2023-09-19T00:22:02;99459.71;;;19.55;77.80
77027;BME280;65956;52.986;17.490;2023-09-19T00:24:29;99464.70;;;19.49;78.04
77027;BME280;65956;52.986;17.490;2023-09-19T00:26:57;99463.73;;;19.40;78.78
77027;BME280;65956;52.986;17.490;2023-09-19T00:29:25;99468.56;;;19.33;78.91
77027;BME280;65956;52.986;17.490;2023-09-19T00:31:56;99468.23;;;19.23;79.65
77027;BME280;65956;52.986;17.490;2023-09-19T00:34:25;99466.17;;;19.14;80.27
77027;BME280;65956;52.986;17.490;2023-09-19T00:36:52;99455.61;;;19.06;80.44
77027;BME280;65956;52.986;17.490;2023-09-19T00:39:21;99452.77;;;18.98;80.30
77027;BME280;65956;52.986;17.490;2023-09-19T00:41:48;99453.70;;;18.92;80.62
77027;BME280;65956;52.986;17.490;2023-09-19T00:44:15;99455.85;;;18.87;80.98
77027;BME280;65956;52.986;17.490;2023-09-19T00:46:42;99454.64;;;18.83;80.75
77027;BME280;65956;52.986;17.490;2023-09-19T00:49:09;99453.73;;;18.78;81.08
77027;BME280;65956;52.986;17.490;2023-09-19T00:51:36;99447.89;;;18.74;81.20
77027;BME280;65956;52.986;17.490;2023-09-19T00:54:03;99448.64;;;18.70;81.54
77027;BME280;65956;52.986;17.490;2023-09-19T00:56:31;99444.92;;;18.67;81.69
77027;BME280;65956;52.986;17.490;2023-09-19T00:58:58;99431.95;;;18.65;82.14
77027;BME280;65956;52.986;17.490;2023-09-19T01:01:25;99423.27;;;18.61;82.32
77027;BME280;65956;52.986;17.490;2023-09-19T01:03:52;99417.77;;;18.57;82.39
77027;BME280;65956;52.986;17.490;2023-09-19T01:06:19;99422.30;;;18.52;83.25
77027;BME280;65956;52.986;17.490;2023-09-19T01:08:46;99426.35;;;18.46;84.27
77027;BME280;65956;52.986;17.490;2023-09-19T01:11:30;99429.85;;;18.39;85.26
77027;BME280;65956;52.986;17.490;2023-09-19T01:14:03;99420.44;;;18.33;85.58
77027;BME280;65956;52.986;17.490;2023-09-19T01:16:59;99411.34;;;18.27;85.74
77027;BME280;65956;52.986;17.490;2023-09-19T01:22:13;99427.66;;;18.14;86.79
77027;BME280;65956;52.986;17.490;2023-09-19T01:30:52;99428.91;;;17.95;87.76
77027;BME280;65956;52.986;17.490;2023-09-19T01:33:24;99425.08;;;17.90;87.98
77027;BME280;65956;52.986;17.490;2023-09-19T01:35:52;99424.50;;;17.88;88.06
77027;BME280;65956;52.986;17.490;2023-09-19T01:38:19;99430.03;;;17.86;88.93
77027;BME280;65956;52.986;17.490;2023-09-19T01:41:08;99430.09;;;17.84;89.53
77027;BME280;65956;52.986;17.490;2023-09-19T01:43:42;99425.90;;;17.81;89.02
77027;BME280;65956;52.986;17.490;2023-09-19T01:46:15;99423.20;;;17.80;88.98
77027;BME280;65956;52.986;17.490;2023-09-19T01:48:57;99422.98;;;17.79;88.84
77027;BME280;65956;52.986;17.490;2023-09-19T01:51:39;99425.74;;;17.78;90.05
77027;BME280;65956;52.986;17.490;2023-09-19T01:54:12;99424.25;;;17.76;90.57
77027;BME280;65956;52.986;17.490;2023-09-19T01:56:59;99422.63;;;17.74;90.45
77027;BME280;65956;52.986;17.490;2023-09-19T01:59:43;99421.01;;;17.71;90.21
77027;BME280;65956;52.986;17.490;2023-09-19T02:02:12;99418.35;;;17.68;90.34
77027;BME280;65956;52.986;17.490;2023-09-19T02:04:40;99417.80;;;17.65;90.58
77027;BME280;65956;52.986;17.490;2023-09-19T02:07:07;99418.39;;;17.61;91.54
77027;BME280;65956;52.986;17.490;2023-09-19T02:09:34;99425.14;;;17.57;91.87
77027;BME280;65956;52.986;17.490;2023-09-19T02:12:05;99424.28;;;17.52;92.54
77027;BME280;65956;52.986;17.490;2023-09-19T02:14:32;99429.89;;;17.47;92.98
77027;BME280;65956;52.986;17.490;2023-09-19T02:17:00;99432.46;;;17.44;93.22
77027;BME280;65956;52.986;17.490;2023-09-19T02:19:27;99431.42;;;17.40;94.89
77027;BME280;65956;52.986;17.490;2023-09-19T02:21:54;99427.81;;;17.37;94.19
77027;BME280;65956;52.986;17.490;2023-09-19T02:24:21;99427.14;;;17.35;93.49
77027;BME280;65956;52.986;17.490;2023-09-19T02:26:53;99433.85;;;17.33;93.87
77027;BME280;65956;52.986;17.490;2023-09-19T02:29:21;99433.90;;;17.31;94.44
77027;BME280;65956;52.986;17.490;2023-09-19T02:31:48;99433.70;;;17.30;94.49
77027;BME280;65956;52.986;17.490;2023-09-19T02:34:15;99432.75;;;17.29;94.64
77027;BME280;65956;52.986;17.490;2023-09-19T02:36:43;99429.46;;;17.29;95.20
77027;BME280;65956;52.986;17.490;2023-09-19T02:39:11;99426.33;;;17.28;95.48
77027;BME280;65956;52.986;17.490;2023-09-19T02:41:38;99426.85;;;17.27;95.74
77027;BME280;65956;52.986;17.490;2023-09-19T02:44:04;99425.05;;;17.28;95.72
77027;BME280;65956;52.986;17.490;2023-09-19T02:46:34;99424.95;;;17.29;96.46
77027;BME280;65956;52.986;17.490;2023-09-19T02:49:03;99429.79;;;17.28;97.47
77027;BME280;65956;52.986;17.490;2023-09-19T02:51:33;99431.16;;;17.28;97.73
77027;BME280;65956;52.986;17.490;2023-09-19T02:54:00;99426.67;;;17.28;97.33
77027;BME280;65956;52.986;17.490;2023-09-19T02:56:29;99426.09;;;17.28;97.28
77027;BME280;65956;52.986;17.490;2023-09-19T02:58:57;99425.04;;;17.28;97.34
77027;BME280;65956;52.986;17.490;2023-09-19T03:01:24;99427.79;;;17.28;97.16
77027;BME280;65956;52.986;17.490;2023-09-19T03:03:51;99425.77;;;17.28;97.57
77027;BME280;65956;52.986;17.490;2023-09-19T03:06:19;99425.30;;;17.28;97.43
77027;BME280;65956;52.986;17.490;2023-09-19T03:08:47;99428.90;;;17.29;97.25
77027;BME280;65956;52.986;17.490;2023-09-19T03:11:15;99430.90;;;17.29;97.25
77027;BME280;65956;52.986;17.490;2023-09-19T03:13:46;99428.73;;;17.28;97.60
77027;BME280;65956;52.986;17.490;2023-09-19T03:16:14;99425.45;;;17.28;97.69
77027;BME280;65956;52.986;17.490;2023-09-19T03:18:41;99430.30;;;17.28;98.05
77027;BME280;65956;52.986;17.490;2023-09-19T03:21:08;99430.33;;;17.26;97.99
77027;BME280;65956;52.986;17.490;2023-09-19T03:23:35;99427.99;;;17.27;97.46
77027;BME280;65956;52.986;17.490;2023-09-19T03:26:01;99422.94;;;17.26;97.29
77027;BME280;65956;52.986;17.490;2023-09-19T03:28:29;99421.64;;;17.27;96.77
77027;BME280;65956;52.986;17.490;2023-09-19T03:31:00;99424.14;;;17.26;97.00
77027;BME280;65956;52.986;17.490;2023-09-19T03:33:28;99417.64;;;17.25;96.80
77027;BME280;65956;52.986;17.490;2023-09-19T03:35:55;99419.27;;;17.24;97.07
77027;BME280;65956;52.986;17.490;2023-09-19T03:38:27;99418.14;;;17.22;97.38
77027;BME280;65956;52.986;17.490;2023-09-19T03:40:57;99422.16;;;17.22;96.58
77027;BME280;65956;52.986;17.490;2023-09-19T03:43:23;99417.36;;;17.19;96.53
77027;BME280;65956;52.986;17.490;2023-09-19T03:45:50;99414.95;;;17.16;96.53
77027;BME280;65956;52.986;17.490;2023-09-19T03:48:21;99415.59;;;17.12;96.22
77027;BME280;65956;52.986;17.490;2023-09-19T03:50:48;99418.95;;;17.07;96.83
77027;BME280;65956;52.986;17.490;2023-09-19T03:53:16;99416.56;;;17.03;96.77
77027;BME280;65956;52.986;17.490;2023-09-19T03:55:44;99414.34;;;16.98;96.70
77027;BME280;65956;52.986;17.490;2023-09-19T03:58:12;99410.25;;;16.94;97.15
77027;BME280;65956;52.986;17.490;2023-09-19T04:00:39;99412.66;;;16.91;97.34
77027;BME280;65956;52.986;17.490;2023-09-19T04:03:06;99413.08;;;16.87;97.64
77027;BME280;65956;52.986;17.490;2023-09-19T04:05:33;99410.91;;;16.83;97.68
77027;BME280;65956;52.986;17.490;2023-09-19T04:08:00;99405.94;;;16.79;97.60
77027;BME280;65956;52.986;17.490;2023-09-19T04:10:27;99405.66;;;16.77;98.15
77027;BME280;65956;52.986;17.490;2023-09-19T04:12:55;99405.21;;;16.75;99.10
77027;BME280;65956;52.986;17.490;2023-09-19T04:15:23;99403.82;;;16.74;99.27
77027;BME280;65956;52.986;17.490;2023-09-19T04:17:51;99413.00;;;16.72;99.18
77027;BME280;65956;52.986;17.490;2023-09-19T04:20:19;99416.90;;;16.70;99.60
77027;BME280;65956;52.986;17.490;2023-09-19T04:22:46;99411.23;;;16.69;99.64
77027;BME280;65956;52.986;17.490;2023-09-19T04:25:13;99415.13;;;16.67;99.50
77027;BME280;65956;52.986;17.490;2023-09-19T04:27:41;99411.97;;;16.65;98.99
77027;BME280;65956;52.986;17.490;2023-09-19T04:30:08;99410.06;;;16.63;98.73
77027;BME280;65956;52.986;17.490;2023-09-19T04:32:39;99414.19;;;16.62;98.68
77027;BME280;65956;52.986;17.490;2023-09-19T04:35:07;99415.52;;;16.60;98.95
77027;BME280;65956;52.986;17.490;2023-09-19T04:37:39;99413.53;;;16.59;99.12
77027;BME280;65956;52.986;17.490;2023-09-19T04:40:07;99414.59;;;16.58;99.01
77027;BME280;65956;52.986;17.490;2023-09-19T04:42:40;99412.25;;;16.59;99.27
77027;BME280;65956;52.986;17.490;2023-09-19T04:45:08;99417.07;;;16.59;99.45
77027;BME280;65956;52.986;17.490;2023-09-19T04:47:38;99414.81;;;16.59;99.86
77027;BME280;65956;52.986;17.490;2023-09-19T04:50:09;99416.41;;;16.60;99.95
77027;BME280;65956;52.986;17.490;2023-09-19T04:52:43;99424.03;;;16.61;99.98
77027;BME280;65956;52.986;17.490;2023-09-19T04:55:11;99416.58;;;16.59;99.85
77027;BME280;65956;52.986;17.490;2023-09-19T04:57:46;99414.42;;;16.59;99.75
77027;BME280;65956;52.986;17.490;2023-09-19T05:00:15;99409.55;;;16.57;99.38
77027;BME280;65956;52.986;17.490;2023-09-19T05:02:43;99420.17;;;16.56;99.69
77027;BME280;65956;52.986;17.490;2023-09-19T05:05:10;99427.89;;;16.56;99.34
77027;BME280;65956;52.986;17.490;2023-09-19T05:07:39;99432.80;;;16.55;99.31
77027;BME280;65956;52.986;17.490;2023-09-19T05:10:06;99427.50;;;16.55;99.74
77027;BME280;65956;52.986;17.490;2023-09-19T05:12:34;99421.53;;;16.56;99.64
77027;BME280;65956;52.986;17.490;2023-09-19T05:15:04;99425.06;;;16.57;99.27
77027;BME280;65956;52.986;17.490;2023-09-19T05:17:36;99425.61;;;16.58;98.92
77027;BME280;65956;52.986;17.490;2023-09-19T05:20:03;99424.09;;;16.58;98.80
77027;BME280;65956;52.986;17.490;2023-09-19T05:22:47;99428.10;;;16.58;98.69
77027;BME280;65956;52.986;17.490;2023-09-19T05:25:14;99423.11;;;16.58;98.51
77027;BME280;65956;52.986;17.490;2023-09-19T05:27:43;99418.30;;;16.58;98.21
77027;BME280;65956;52.986;17.490;2023-09-19T05:30:10;99423.42;;;16.58;98.10
77027;BME280;65956;52.986;17.490;2023-09-19T05:32:37;99430.27;;;16.58;98.02
77027;BME280;65956;52.986;17.490;2023-09-19T05:35:04;99430.19;;;16.58;97.97
77027;BME280;65956;52.986;17.490;2023-09-19T05:37:34;99435.81;;;16.58;98.03
77027;BME280;65956;52.986;17.490;2023-09-19T05:40:01;99431.06;;;16.58;97.89
77027;BME280;65956;52.986;17.490;2023-09-19T05:42:28;99431.05;;;16.59;98.01
77027;BME280;65956;52.986;17.490;2023-09-19T05:44:55;99428.21;;;16.61;97.96
77027;BME280;65956;52.986;17.490;2023-09-19T05:47:22;99429.36;;;16.63;97.99
77027;BME280;65956;52.986;17.490;2023-09-19T05:49:49;99436.58;;;16.65;98.07
77027;BME280;65956;52.986;17.490;2023-09-19T05:52:17;99435.58;;;16.66;97.95
77027;BME280;65956;52.986;17.490;2023-09-19T05:54:44;99443.05;;;16.66;98.02
77027;BME280;65956;52.986;17.490;2023-09-19T05:57:10;99439.00;;;16.67;98.19
77027;BME280;65956;52.986;17.490;2023-09-19T05:59:38;99439.48;;;16.67;98.19
77027;BME280;65956;52.986;17.490;2023-09-19T06:02:06;99443.55;;;16.68;98.16
77027;BME280;65956;52.986;17.490;2023-09-19T06:04:33;99442.08;;;16.69;98.20
77027;BME280;65956;52.986;17.490;2023-09-19T06:07:00;99446.08;;;16.70;98.15
77027;BME280;65956;52.986;17.490;2023-09-19T06:09:27;99452.89;;;16.71;98.07
77027;BME280;65956;52.986;17.490;2023-09-19T06:11:54;99459.46;;;16.72;98.26
77027;BME280;65956;52.986;17.490;2023-09-19T06:14:22;99456.88;;;16.73;98.23
77027;BME280;65956;52.986;17.490;2023-09-19T06:16:51;99457.23;;;16.75;98.18
77027;BME280;65956;52.986;17.490;2023-09-19T06:19:20;99458.23;;;16.78;98.10
77027;BME280;65956;52.986;17.490;2023-09-19T06:21:49;99458.10;;;16.80;97.81
77027;BME280;65956;52.986;17.490;2023-09-19T06:24:16;99459.65;;;16.82;97.51
77027;BME280;65956;52.986;17.490;2023-09-19T06:26:43;99454.14;;;16.84;97.16
77027;BME280;65956;52.986;17.490;2023-09-19T06:29:10;99461.45;;;16.92;97.23
77027;BME280;65956;52.986;17.490;2023-09-19T06:31:39;99466.58;;;17.00;96.85
77027;BME280;65956;52.986;17.490;2023-09-19T06:34:05;99470.43;;;17.07;96.51
77027;BME280;65956;52.986;17.490;2023-09-19T06:36:33;99472.84;;;17.10;96.39
77027;BME280;65956;52.986;17.490;2023-09-19T06:39:00;99473.84;;;17.13;96.25
77027;BME280;65956;52.986;17.490;2023-09-19T06:41:26;99472.33;;;17.18;96.18
77027;BME280;65956;52.986;17.490;2023-09-19T06:43:53;99473.55;;;17.25;95.83
77027;BME280;65956;52.986;17.490;2023-09-19T06:46:20;99475.95;;;17.33;95.48
77027;BME280;65956;52.986;17.490;2023-09-19T06:48:47;99480.27;;;17.40;95.13
77027;BME280;65956;52.986;17.490;2023-09-19T06:51:14;99486.36;;;17.45;94.70
77027;BME280;65956;52.986;17.490;2023-09-19T06:53:42;99486.83;;;17.49;94.49
77027;BME280;65956;52.986;17.490;2023-09-19T06:56:09;99481.23;;;17.54;94.41
77027;BME280;65956;52.986;17.490;2023-09-19T06:58:36;99486.39;;;17.61;94.14
77027;BME280;65956;52.986;17.490;2023-09-19T07:01:04;99491.98;;;17.73;94.01
77027;BME280;65956;52.986;17.490;2023-09-19T07:03:30;99497.05;;;17.89;93.47
77027;BME280;65956;52.986;17.490;2023-09-19T07:05:59;99497.66;;;17.99;92.64
77027;BME280;65956;52.986;17.490;2023-09-19T07:08:26;99494.19;;;18.09;92.29
77027;BME280;65956;52.986;17.490;2023-09-19T07:10:53;99499.50;;;18.12;91.62
77027;BME280;65956;52.986;17.490;2023-09-19T07:13:20;99504.77;;;18.17;91.21
77027;BME280;65956;52.986;17.490;2023-09-19T07:15:47;99505.41;;;18.23;90.94
77027;BME280;65956;52.986;17.490;2023-09-19T07:18:14;99512.20;;;18.25;90.33
77027;BME280;65956;52.986;17.490;2023-09-19T07:20:44;99517.58;;;18.32;89.79
77027;BME280;65956;52.986;17.490;2023-09-19T07:23:21;99520.25;;;18.37;89.64
77027;BME280;65956;52.986;17.490;2023-09-19T07:25:49;99525.30;;;18.44;89.18
77027;BME280;65956;52.986;17.490;2023-09-19T07:28:16;99522.09;;;18.46;88.13
77027;BME280;65956;52.986;17.490;2023-09-19T07:30:43;99521.59;;;18.50;88.32
77027;BME280;65956;52.986;17.490;2023-09-19T07:33:09;99524.42;;;18.53;88.25
77027;BME280;65956;52.986;17.490;2023-09-19T07:35:39;99527.61;;;18.51;88.05
77027;BME280;65956;52.986;17.490;2023-09-19T07:38:08;99529.08;;;18.50;88.18
77027;BME280;65956;52.986;17.490;2023-09-19T07:40:37;99530.59;;;18.55;87.74
77027;BME280;65956;52.986;17.490;2023-09-19T07:43:04;99531.91;;;18.60;87.53
77027;BME280;65956;52.986;17.490;2023-09-19T07:45:31;99531.63;;;18.66;87.80
77027;BME280;65956;52.986;17.490;2023-09-19T07:47:59;99543.91;;;18.85;87.80
77027;BME280;65956;52.986;17.490;2023-09-19T07:50:27;99542.66;;;18.97;86.58
77027;BME280;65956;52.986;17.490;2023-09-19T07:52:55;99538.67;;;19.02;85.90
77027;BME280;65956;52.986;17.490;2023-09-19T07:55:22;99539.44;;;19.17;85.77
77027;BME280;65956;52.986;17.490;2023-09-19T07:57:52;99539.89;;;19.42;84.85
77027;BME280;65956;52.986;17.490;2023-09-19T08:00:19;99536.66;;;19.59;83.70
77027;BME280;65956;52.986;17.490;2023-09-19T08:02:46;99545.42;;;19.61;82.99
77027;BME280;65956;52.986;17.490;2023-09-19T08:05:14;99551.45;;;19.59;82.77
77027;BME280;65956;52.986;17.490;2023-09-19T08:07:45;99553.36;;;19.68;82.82
77027;BME280;65956;52.986;17.490;2023-09-19T08:10:15;99561.36;;;19.75;81.31
77027;BME280;65956;52.986;17.490;2023-09-19T08:12:43;99568.90;;;19.59;79.81
77027;BME280;65956;52.986;17.490;2023-09-19T08:15:18;99564.95;;;19.46;81.30
77027;BME280;65956;52.986;17.490;2023-09-19T08:17:47;99568.27;;;19.46;82.10
77027;BME280;65956;52.986;17.490;2023-09-19T08:20:14;99578.16;;;19.55;81.61
77027;BME280;65956;52.986;17.490;2023-09-19T08:22:52;99584.14;;;19.68;81.02
77027;BME280;65956;52.986;17.490;2023-09-19T08:25:21;99591.52;;;19.75;79.08
77027;BME280;65956;52.986;17.490;2023-09-19T08:27:49;99589.20;;;19.86;78.94
77027;BME280;65956;52.986;17.490;2023-09-19T08:30:17;99598.29;;;20.00;79.07
77027;BME280;65956;52.986;17.490;2023-09-19T08:32:44;99592.31;;;20.05;78.10
77027;BME280;65956;52.986;17.490;2023-09-19T08:35:12;99593.43;;;20.07;77.34
77027;BME280;65956;52.986;17.490;2023-09-19T08:37:39;99596.45;;;20.10;77.36
77027;BME280;65956;52.986;17.490;2023-09-19T08:40:06;99596.11;;;20.03;77.95
77027;BME280;65956;52.986;17.490;2023-09-19T08:45:15;99600.37;;;19.93;79.06
77027;BME280;65956;52.986;17.490;2023-09-19T08:47:46;99591.83;;;19.96;77.93
77027;BME280;65956;52.986;17.490;2023-09-19T08:50:39;99595.10;;;19.99;75.70
77027;BME280;65956;52.986;17.490;2023-09-19T08:53:11;99598.48;;;20.12;75.62
77027;BME280;65956;52.986;17.490;2023-09-19T08:55:42;99600.50;;;20.29;75.09
77027;BME280;65956;52.986;17.490;2023-09-19T08:58:11;99599.13;;;20.46;74.73
77027;BME280;65956;52.986;17.490;2023-09-19T09:00:44;99602.06;;;20.61;73.53
77027;BME280;65956;52.986;17.490;2023-09-19T09:03:13;99600.38;;;20.65;72.37
77027;BME280;65956;52.986;17.490;2023-09-19T09:05:42;99605.02;;;20.62;71.75
77027;BME280;65956;52.986;17.490;2023-09-19T09:08:10;99604.96;;;20.61;71.35
77027;BME280;65956;52.986;17.490;2023-09-19T09:10:37;99604.55;;;20.61;71.28
77027;BME280;65956;52.986;17.490;2023-09-19T09:13:04;99606.45;;;20.67;70.45
77027;BME280;65956;52.986;17.490;2023-09-19T09:15:36;99607.04;;;20.76;70.85
77027;BME280;65956;52.986;17.490;2023-09-19T09:18:03;99609.81;;;20.73;70.77
77027;BME280;65956;52.986;17.490;2023-09-19T09:20:31;99613.51;;;20.57;71.10
77027;BME280;65956;52.986;17.490;2023-09-19T09:22:58;99617.79;;;20.55;71.66
77027;BME280;65956;52.986;17.490;2023-09-19T09:28:20;99618.45;;;20.55;70.50
77027;BME280;65956;52.986;17.490;2023-09-19T09:30:48;99621.68;;;20.55;69.83
77027;BME280;65956;52.986;17.490;2023-09-19T09:33:15;99621.98;;;20.69;69.90
77027;BME280;65956;52.986;17.490;2023-09-19T09:38:20;99627.04;;;20.89;68.68
77027;BME280;65956;52.986;17.490;2023-09-19T09:40:49;99622.23;;;20.90;68.20
77027;BME280;65956;52.986;17.490;2023-09-19T09:43:35;99628.27;;;20.85;68.41
77027;BME280;65956;52.986;17.490;2023-09-19T09:46:08;99625.57;;;20.94;68.13
77027;BME280;65956;52.986;17.490;2023-09-19T09:48:45;99637.96;;;21.14;67.51
77027;BME280;65956;52.986;17.490;2023-09-19T09:51:30;99648.61;;;20.95;65.32
77027;BME280;65956;52.986;17.490;2023-09-19T09:54:09;99646.73;;;20.72;66.40
77027;BME280;65956;52.986;17.490;2023-09-19T09:56:59;99656.25;;;20.45;66.44
77027;BME280;65956;52.986;17.490;2023-09-19T09:59:47;99659.94;;;20.31;66.91
77027;BME280;65956;52.986;17.490;2023-09-19T10:02:15;99659.66;;;20.37;67.19
77027;BME280;65956;52.986;17.490;2023-09-19T10:04:46;99656.17;;;20.49;65.75
77027;BME280;65956;52.986;17.490;2023-09-19T10:07:33;99661.69;;;20.63;64.54
77027;BME280;65956;52.986;17.490;2023-09-19T10:10:07;99662.19;;;20.89;63.98
77027;BME280;65956;52.986;17.490;2023-09-19T10:12:45;99673.58;;;21.09;63.93
77027;BME280;65956;52.986;17.490;2023-09-19T10:15:14;99675.23;;;21.18;62.50
77027;BME280;65956;52.986;17.490;2023-09-19T10:17:44;99675.11;;;21.25;61.94
77027;BME280;65956;52.986;17.490;2023-09-19T10:20:18;99678.55;;;21.44;62.62
77027;BME280;65956;52.986;17.490;2023-09-19T10:23:00;99680.28;;;21.35;62.30
77027;BME280;65956;52.986;17.490;2023-09-19T10:25:28;99669.60;;;21.28;63.13
77027;BME280;65956;52.986;17.490;2023-09-19T10:27:56;99674.98;;;21.18;63.54
77027;BME280;65956;52.986;17.490;2023-09-19T10:30:26;99672.95;;;21.11;64.15
77027;BME280;65956;52.986;17.490;2023-09-19T10:33:01;99673.04;;;21.14;64.94
77027;BME280;65956;52.986;17.490;2023-09-19T10:35:29;99671.75;;;21.08;63.81
77027;BME280;65956;52.986;17.490;2023-09-19T10:38:00;99666.16;;;20.97;63.85
77027;BME280;65956;52.986;17.490;2023-09-19T10:40:29;99663.94;;;21.01;63.49
77027;BME280;65956;52.986;17.490;2023-09-19T10:43:04;99662.73;;;21.00;60.23
77027;BME280;65956;52.986;17.490;2023-09-19T10:45:33;99670.33;;;21.00;59.22
77027;BME280;65956;52.986;17.490;2023-09-19T10:48:02;99671.14;;;21.01;59.87
77027;BME280;65956;52.986;17.490;2023-09-19T10:50:36;99672.86;;;21.14;58.93
77027;BME280;65956;52.986;17.490;2023-09-19T10:53:08;99668.31;;;21.40;57.28
77027;BME280;65956;52.986;17.490;2023-09-19T10:55:38;99672.34;;;21.79;56.24
77027;BME280;65956;52.986;17.490;2023-09-19T10:58:08;99671.59;;;22.17;55.70
77027;BME280;65956;52.986;17.490;2023-09-19T11:00:52;99671.70;;;22.56;54.68
77027;BME280;65956;52.986;17.490;2023-09-19T11:03:21;99675.02;;;22.90;53.59
77027;BME280;65956;52.986;17.490;2023-09-19T11:06:15;99671.81;;;23.37;51.96
77027;BME280;65956;52.986;17.490;2023-09-19T11:09:12;99678.67;;;23.44;50.33
77027;BME280;65956;52.986;17.490;2023-09-19T11:11:43;99677.66;;;23.43;51.83
77027;BME280;65956;52.986;17.490;2023-09-19T11:14:15;99683.11;;;23.47;51.23
77027;BME280;65956;52.986;17.490;2023-09-19T11:33:29;99695.02;;;23.30;49.64
77027;BME280;65956;52.986;17.490;2023-09-19T11:36:09;99707.02;;;23.44;49.43
77027;BME280;65956;52.986;17.490;2023-09-19T11:46:17;99713.84;;;22.75;51.24
77027;BME280;65956;52.986;17.490;2023-09-19T11:48:49;99718.12;;;22.30;50.78
77027;BME280;65956;52.986;17.490;2023-09-19T11:51:17;99721.88;;;22.03;50.33
77027;BME280;65956;52.986;17.490;2023-09-19T11:53:57;99730.14;;;21.92;51.15
77027;BME280;65956;52.986;17.490;2023-09-19T11:56:27;99735.30;;;22.03;50.86
77027;BME280;65956;52.986;17.490;2023-09-19T11:58:56;99733.91;;;22.12;48.88
77027;BME280;65956;52.986;17.490;2023-09-19T12:01:25;99738.70;;;22.20;48.20
77027;BME280;65956;52.986;17.490;2023-09-19T12:04:02;99743.28;;;22.29;48.56
77027;BME280;65956;52.986;17.490;2023-09-19T12:06:31;99743.36;;;22.37;48.72
77027;BME280;65956;52.986;17.490;2023-09-19T12:09:00;99746.07;;;22.63;49.63
77027;BME280;65956;52.986;17.490;2023-09-19T12:11:33;99740.94;;;23.00;48.68
77027;BME280;65956;52.986;17.490;2023-09-19T12:13:59;99743.46;;;23.52;46.72
77027;BME280;65956;52.986;17.490;2023-09-19T12:16:30;99739.98;;;23.98;46.13
77027;BME280;65956;52.986;17.490;2023-09-19T12:18:57;99738.18;;;23.86;46.10
77027;BME280;65956;52.986;17.490;2023-09-19T12:21:28;99740.61;;;24.30;45.49
77027;BME280;65956;52.986;17.490;2023-09-19T12:26:41;99726.80;;;28.19;38.39
77027;BME280;65956;52.986;17.490;2023-09-19T12:29:19;99721.30;;;29.59;34.67
77027;BME280;65956;52.986;17.490;2023-09-19T12:31:51;99728.73;;;30.27;32.28
77027;BME280;65956;52.986;17.490;2023-09-19T12:34:25;99728.95;;;30.56;32.72
77027;BME280;65956;52.986;17.490;2023-09-19T12:39:32;99722.21;;;32.31;29.65
77027;BME280;65956;52.986;17.490;2023-09-19T12:41:59;99718.36;;;32.69;27.65
77027;BME280;65956;52.986;17.490;2023-09-19T12:44:26;99722.41;;;32.95;27.19
77027;BME280;65956;52.986;17.490;2023-09-19T12:46:53;99738.64;;;33.24;25.75
77027;BME280;65956;52.986;17.490;2023-09-19T12:49:21;99732.21;;;33.29;25.23
77027;BME280;65956;52.986;17.490;2023-09-19T12:51:49;99731.91;;;33.37;24.93
77027;BME280;65956;52.986;17.490;2023-09-19T12:54:16;99727.22;;;32.18;26.36
77027;BME280;65956;52.986;17.490;2023-09-19T12:56:44;99729.73;;;30.12;29.20
77027;BME280;65956;52.986;17.490;2023-09-19T12:59:13;99741.15;;;28.74;31.44
77027;BME280;65956;52.986;17.490;2023-09-19T13:01:41;99736.50;;;27.83;32.78
77027;BME280;65956;52.986;17.490;2023-09-19T13:04:20;99734.42;;;28.72;32.36
77027;BME280;65956;52.986;17.490;2023-09-19T13:06:59;99735.80;;;30.24;30.01
77027;BME280;65956;52.986;17.490;2023-09-19T13:09:27;99728.27;;;30.45;29.75
77027;BME280;65956;52.986;17.490;2023-09-19T13:12:00;99737.97;;;29.64;30.83
77027;BME280;65956;52.986;17.490;2023-09-19T13:14:30;99737.04;;;30.87;29.82
77027;BME280;65956;52.986;17.490;2023-09-19T13:17:05;99739.64;;;31.94;27.68
77027;BME280;65956;52.986;17.490;2023-09-19T13:19:47;99728.40;;;32.05;26.56
77027;BME280;65956;52.986;17.490;2023-09-19T13:22:39;99732.92;;;32.03;26.26
77027;BME280;65956;52.986;17.490;2023-09-19T13:25:10;99730.56;;;31.44;26.70
77027;BME280;65956;52.986;17.490;2023-09-19T13:27:43;99736.42;;;29.51;28.85
77027;BME280;65956;52.986;17.490;2023-09-19T13:30:14;99737.45;;;27.54;32.28
77027;BME280;65956;52.986;17.490;2023-09-19T13:32:41;99743.39;;;26.14;34.50
77027;BME280;65956;52.986;17.490;2023-09-19T13:35:10;99749.26;;;25.30;36.15
77027;BME280;65956;52.986;17.490;2023-09-19T13:37:38;99755.45;;;24.67;37.34
77027;BME280;65956;52.986;17.490;2023-09-19T13:40:10;99749.20;;;24.14;38.36
77027;BME280;65956;52.986;17.490;2023-09-19T13:42:37;99751.89;;;23.88;39.33
77027;BME280;65956;52.986;17.490;2023-09-19T13:45:04;99752.33;;;24.24;39.13
77027;BME280;65956;52.986;17.490;2023-09-19T13:47:31;99753.48;;;24.61;38.02
77027;BME280;65956;52.986;17.490;2023-09-19T13:49:59;99760.20;;;24.53;38.66
77027;BME280;65956;52.986;17.490;2023-09-19T13:52:27;99756.44;;;24.61;39.12